Time;durP1;ratioP1;P1;durP2;ratioP2;P2;SDS_P1;SDS_P2;PMS_P1;PMS_P2;Temp;Humidity;BMP_temperature;BMP_pressure;BME280_temperature;BME280_humidity;BME280_pressure;Samples;Min_cycle;Max_cycle;Signal;HPM_P1;HPM_P2
2021/11/07 00:01:42;;;;;;;6.00;3.28;;;10.70;99.90;;;;;;5017826;28;20165;-62
2021/11/07 00:06:40;;;;;;;6.78;2.58;;;10.70;99.90;;;;;;5039078;28;20037;-63
2021/11/07 00:11:35;;;;;;;8.68;2.53;;;10.70;99.90;;;;;;5042398;28;20078;-62
2021/11/07 00:14:05;;;;;;;14.13;4.20;;;10.70;99.90;;;;;;5024043;28;20126;-62
2021/11/07 00:16:34;;;;;;;8.10;2.72;;;10.80;99.90;;;;;;5040849;28;20041;-62
2021/11/07 00:19:08;;;;;;;9.93;2.55;;;10.80;99.90;;;;;;5041160;28;20392;-63
2021/11/07 00:22:22;;;;;;;12.00;3.47;;;10.80;99.90;;;;;;5040518;28;20029;-61
2021/11/07 00:29:34;;;;;;;9.32;2.58;;;10.90;99.90;;;;;;5036750;28;20472;-62
2021/11/07 00:37:15;;;;;;;6.00;2.35;;;10.90;99.90;;;;;;5038564;28;20506;-62
2021/11/07 00:42:27;;;;;;;10.90;2.95;;;10.90;99.90;;;;;;5040360;28;20559;-61
2021/11/07 00:44:57;;;;;;;10.68;2.58;;;11.00;99.90;;;;;;5038480;28;20025;-63
2021/11/07 00:47:35;;;;;;;7.22;3.10;;;11.00;99.90;;;;;;5038880;28;20405;-62
2021/11/07 00:50:06;;;;;;;8.63;2.63;;;11.00;99.90;;;;;;5040082;28;20029;-61
2021/11/07 00:52:50;;;;;;;;;;;11.00;99.90;;;;;;5023059;28;20117;-62
2021/11/07 00:55:31;;;;;;;10.60;3.30;;;11.00;99.90;;;;;;5020622;28;19924;-61
2021/11/07 00:58:09;;;;;;;11.32;3.00;;;11.10;99.90;;;;;;5018049;28;20052;-62
2021/11/07 01:03:03;;;;;;;12.85;3.65;;;11.10;99.90;;;;;;5038378;28;20060;-61
2021/11/07 01:05:33;;;;;;;9.85;2.50;;;11.00;99.90;;;;;;5037952;28;20540;-62
2021/11/07 01:07:59;;;;;;;8.45;3.08;;;11.00;99.90;;;;;;5040059;28;20040;-66
2021/11/07 01:10:26;;;;;;;15.30;3.42;;;11.00;99.90;;;;;;5038418;28;20059;-62
2021/11/07 01:12:52;;;;;;;12.40;2.70;;;11.00;99.90;;;;;;5041477;28;20052;-62
2021/11/07 01:15:18;;;;;;;20.15;2.45;;;11.10;99.90;;;;;;5037095;28;20531;-62
2021/11/07 01:17:44;;;;;;;11.15;2.45;;;11.10;99.90;;;;;;5041177;28;20040;-62
2021/11/07 01:20:13;;;;;;;5.90;2.50;;;11.10;99.90;;;;;;5020722;28;20036;-61
2021/11/07 01:22:51;;;;;;;10.13;2.60;;;11.10;99.90;;;;;;5040782;28;20413;-66
2021/11/07 01:25:17;;;;;;;11.68;2.85;;;11.10;99.90;;;;;;5034035;28;20482;-61
2021/11/07 01:27:45;;;;;;;18.20;2.97;;;11.20;99.90;;;;;;5042090;28;20037;-62
2021/11/07 01:30:20;;;;;;;20.08;3.05;;;11.10;99.90;;;;;;5040111;28;20512;-62
2021/11/07 01:32:51;;;;;;;10.85;2.28;;;11.20;99.90;;;;;;5016023;28;20485;-62
2021/11/07 01:35:24;;;;;;;17.58;3.25;;;11.20;99.90;;;;;;5016149;28;20563;-63
2021/11/07 01:38:27;;;;;;;16.83;3.08;;;11.20;99.90;;;;;;5034278;28;20037;-61
2021/11/07 01:40:48;;;;;;;12.80;2.20;;;11.20;99.90;;;;;;5029526;28;20033;-64
2021/11/07 01:43:15;;;;;;;18.15;2.72;;;11.30;99.90;;;;;;5040987;28;20473;-61
2021/11/07 01:45:46;;;;;;;17.98;3.75;;;11.30;99.90;;;;;;5037559;28;20021;-62
2021/11/07 01:50:41;;;;;;;10.52;2.83;;;11.30;99.90;;;;;;5038134;28;20035;-61
2021/11/07 01:53:19;;;;;;;9.02;2.65;;;11.30;99.90;;;;;;5039949;28;20386;-65
2021/11/07 01:55:44;;;;;;;14.20;2.53;;;11.30;99.90;;;;;;5034930;28;20041;-63
2021/11/07 01:58:10;;;;;;;13.18;2.75;;;11.40;99.90;;;;;;5039778;28;20549;-61
2021/11/07 02:00:37;;;;;;;19.15;3.25;;;11.30;99.90;;;;;;5040619;28;20030;-61
2021/11/07 02:03:03;;;;;;;18.67;3.30;;;11.30;99.90;;;;;;5040483;28;20511;-63
2021/11/07 02:05:28;;;;;;;15.32;2.67;;;11.30;99.90;;;;;;5037154;28;20034;-61
2021/11/07 02:07:54;;;;;;;12.15;2.85;;;11.40;99.90;;;;;;5039293;28;20036;-61
2021/11/07 02:10:21;;;;;;;14.70;3.33;;;11.40;99.90;;;;;;5037173;28;20064;-62
2021/11/07 02:12:47;;;;;;;16.20;2.70;;;11.30;99.90;;;;;;5040577;28;20037;-62
2021/11/07 02:15:16;;;;;;;17.55;3.08;;;11.30;99.90;;;;;;5032461;28;20040;-65
2021/11/07 02:17:43;;;;;;;12.38;2.80;;;11.30;99.90;;;;;;5040434;28;20043;-65
2021/11/07 02:20:12;;;;;;;14.85;2.55;;;11.40;99.90;;;;;;5036264;28;20041;-61
2021/11/07 02:22:39;;;;;;;15.13;2.50;;;11.30;99.90;;;;;;5037150;28;20148;-61
2021/11/07 02:25:06;;;;;;;10.98;2.47;;;11.30;99.90;;;;;;5038753;28;20072;-62
2021/11/07 02:27:32;;;;;;;16.80;2.92;;;11.30;99.90;;;;;;5038552;28;20671;-63
2021/11/07 02:29:58;;;;;;;13.93;2.72;;;11.30;99.90;;;;;;5019450;28;20029;-61
2021/11/07 02:32:25;;;;;;;12.70;3.28;;;11.30;99.90;;;;;;5039618;28;20024;-62
2021/11/07 02:34:52;;;;;;;21.08;3.08;;;11.40;99.90;;;;;;5036836;28;20106;-62
2021/11/07 02:37:18;;;;;;;10.88;3.30;;;11.50;99.90;;;;;;5039971;28;20124;-64
2021/11/07 02:39:44;;;;;;;20.55;4.05;;;11.50;99.90;;;;;;5036183;28;20490;-64
2021/11/07 02:42:11;;;;;;;15.80;3.40;;;11.50;99.90;;;;;;5039830;28;20090;-61
2021/11/07 02:44:40;;;;;;;24.55;3.75;;;11.50;99.90;;;;;;5037707;28;20132;-63
2021/11/07 02:47:09;;;;;;;14.05;2.75;;;11.60;99.90;;;;;;5038556;28;20048;-61
2021/11/07 02:49:36;;;;;;;17.13;3.15;;;11.60;99.90;;;;;;5035624;28;21586;-61
2021/11/07 02:52:04;;;;;;;10.65;2.83;;;11.50;99.90;;;;;;5019185;28;20048;-62
2021/11/07 02:54:31;;;;;;;11.57;2.95;;;11.60;99.90;;;;;;5038727;28;20041;-63
2021/11/07 02:56:58;;;;;;;17.58;3.97;;;11.70;99.90;;;;;;5019831;28;20509;-64
2021/11/07 02:59:26;;;;;;;14.15;2.83;;;11.70;99.90;;;;;;5037760;28;20041;-61
2021/11/07 03:01:54;;;;;;;9.38;1.88;;;11.80;99.90;;;;;;5038375;28;20033;-62
2021/11/07 03:04:21;;;;;;;10.90;2.03;;;11.70;99.90;;;;;;5036805;28;20176;-61
2021/11/07 03:06:46;;;;;;;6.32;1.70;;;11.60;99.90;;;;;;5040604;28;20061;-64
2021/11/07 03:09:18;;;;;;;15.65;1.95;;;11.50;99.90;;;;;;5035619;28;20053;-60
2021/11/07 03:11:45;;;;;;;9.93;1.92;;;11.50;99.90;;;;;;5032857;28;20045;-64
2021/11/07 03:14:17;;;;;;;16.83;2.30;;;11.50;99.90;;;;;;5039565;28;20029;-61
2021/11/07 03:16:44;;;;;;;10.63;1.40;;;11.40;99.90;;;;;;5036549;28;20039;-61
2021/11/07 03:19:11;;;;;;;18.92;3.42;;;11.40;99.90;;;;;;5031745;28;20405;-61
2021/11/07 03:21:37;;;;;;;10.15;1.88;;;11.30;99.90;;;;;;5039370;28;20109;-64
2021/11/07 03:24:03;;;;;;;12.82;2.25;;;11.10;99.90;;;;;;5036152;28;20037;-61
2021/11/07 03:26:30;;;;;;;12.82;1.58;;;11.10;99.90;;;;;;5037906;28;20030;-62
2021/11/07 03:29:01;;;;;;;11.25;1.88;;;11.00;99.90;;;;;;5037117;28;20143;-61
2021/11/07 03:34:13;;;;;;;20.23;1.52;;;10.90;99.90;;;;;;5035445;28;20450;-61
2021/11/07 03:36:52;;;;;;;13.82;2.28;;;10.80;99.90;;;;;;5015029;28;20034;-64
2021/11/07 03:39:19;;;;;;;13.43;3.75;;;10.80;99.90;;;;;;5035986;28;20084;-62
2021/11/07 03:41:45;;;;;;;6.55;1.50;;;10.80;99.90;;;;;;5042978;28;20029;-62
2021/11/07 03:44:13;;;;;;;11.00;1.58;;;10.70;99.90;;;;;;5039837;28;20103;-62
2021/11/07 03:46:40;;;;;;;14.48;2.97;;;10.70;99.90;;;;;;5036488;28;20038;-61
2021/11/07 03:49:08;;;;;;;15.07;3.10;;;10.70;99.90;;;;;;5021050;28;20036;-61
2021/11/07 03:51:35;;;;;;;9.02;1.70;;;10.70;99.90;;;;;;5021758;28;20033;-65
2021/11/07 03:54:01;;;;;;;13.20;2.25;;;10.60;99.90;;;;;;5039869;28;20037;-61
2021/11/07 03:56:27;;;;;;;12.15;2.50;;;10.60;99.90;;;;;;5042074;28;20460;-63
2021/11/07 03:58:53;;;;;;;12.30;1.88;;;10.50;99.90;;;;;;5023298;28;20021;-61
2021/11/07 04:01:19;;;;;;;6.82;1.77;;;10.60;99.90;;;;;;5039615;28;20030;-61
2021/11/07 04:03:46;;;;;;;13.63;1.60;;;10.50;99.90;;;;;;5042104;28;20083;-61
2021/11/07 04:06:12;;;;;;;12.15;2.85;;;10.50;99.90;;;;;;5041778;28;20400;-63
2021/11/07 04:08:39;;;;;;;11.20;2.45;;;10.40;99.90;;;;;;5040167;28;20473;-63
2021/11/07 04:11:05;;;;;;;12.05;1.48;;;10.30;99.90;;;;;;5039361;28;20088;-62
2021/11/07 04:13:31;;;;;;;16.73;2.60;;;10.40;99.90;;;;;;5042572;28;20409;-62
2021/11/07 04:15:57;;;;;;;13.27;1.38;;;10.40;99.90;;;;;;5022714;28;20068;-62
2021/11/07 04:18:23;;;;;;;9.43;1.52;;;10.40;99.90;;;;;;5041084;28;20038;-61
2021/11/07 04:20:49;;;;;;;14.65;1.83;;;10.40;99.90;;;;;;5041555;28;20416;-61
2021/11/07 04:23:15;;;;;;;7.63;1.30;;;10.40;99.90;;;;;;5039076;28;20565;-61
2021/11/07 04:25:41;;;;;;;10.60;2.03;;;10.40;99.90;;;;;;5042810;28;20032;-61
2021/11/07 04:28:07;;;;;;;5.57;1.38;;;10.50;99.90;;;;;;5020494;28;20040;-61
2021/11/07 04:30:34;;;;;;;7.25;0.85;;;10.40;99.90;;;;;;5042651;28;20037;-62
2021/11/07 04:33:00;;;;;;;12.18;2.10;;;10.40;99.90;;;;;;5039147;28;20064;-62
2021/11/07 04:35:26;;;;;;;8.57;1.35;;;10.40;99.90;;;;;;5023844;28;20061;-62
2021/11/07 04:37:52;;;;;;;17.38;1.65;;;10.30;99.90;;;;;;5040390;28;20033;-60
2021/11/07 04:40:18;;;;;;;7.70;1.20;;;10.20;99.90;;;;;;5021982;28;20045;-60
2021/11/07 04:42:45;;;;;;;8.00;1.15;;;10.20;99.90;;;;;;5024202;28;20078;-61
2021/11/07 04:45:11;;;;;;;12.52;2.25;;;10.10;99.90;;;;;;5038722;28;20106;-62
2021/11/07 04:47:37;;;;;;;12.05;1.48;;;10.00;99.90;;;;;;5024804;28;20041;-62
2021/11/07 04:50:04;;;;;;;7.72;1.50;;;10.00;99.90;;;;;;5037521;28;20048;-61
2021/11/07 04:52:29;;;;;;;11.68;1.00;;;9.90;99.90;;;;;;5037880;28;20397;-60
2021/11/07 04:54:55;;;;;;;8.95;0.98;;;10.00;99.90;;;;;;5038907;28;20041;-62
2021/11/07 04:57:21;;;;;;;4.88;0.95;;;10.00;99.90;;;;;;5022399;28;20026;-62
2021/11/07 04:59:46;;;;;;;8.05;1.38;;;9.90;99.90;;;;;;5040448;28;20037;-62
2021/11/07 05:02:12;;;;;;;16.65;2.65;;;9.80;99.90;;;;;;5038789;28;20080;-60
2021/11/07 05:04:38;;;;;;;6.53;1.23;;;9.80;99.90;;;;;;5023322;28;20025;-62
2021/11/07 05:07:03;;;;;;;5.85;1.20;;;9.80;99.90;;;;;;5038723;28;20045;-62
2021/11/07 05:09:29;;;;;;;12.40;1.50;;;9.90;99.90;;;;;;5041557;28;20180;-61
2021/11/07 05:11:55;;;;;;;10.48;1.65;;;9.90;99.90;;;;;;5039213;28;20448;-62
2021/11/07 05:14:21;;;;;;;13.18;2.10;;;10.00;99.90;;;;;;5040182;28;20128;-63
2021/11/07 05:16:46;;;;;;;11.88;2.50;;;10.00;99.90;;;;;;5040505;28;20122;-61
2021/11/07 05:19:12;;;;;;;6.18;2.00;;;10.00;99.90;;;;;;5038464;28;20029;-61
2021/11/07 05:21:39;;;;;;;17.98;1.60;;;10.00;99.90;;;;;;5042329;28;20049;-61
2021/11/07 05:24:05;;;;;;;14.65;2.30;;;10.00;99.90;;;;;;5036447;28;20038;-61
2021/11/07 05:26:31;;;;;;;16.08;2.17;;;10.00;99.90;;;;;;5042748;28;20766;-62
2021/11/07 05:28:57;;;;;;;10.50;1.40;;;9.90;99.90;;;;;;5039096;28;20064;-64
2021/11/07 05:31:23;;;;;;;11.85;1.45;;;9.90;99.90;;;;;;5022675;28;20101;-60
2021/11/07 05:33:48;;;;;;;17.60;1.42;;;9.90;99.90;;;;;;5037857;28;20445;-61
2021/11/07 05:36:14;;;;;;;8.20;1.48;;;9.70;99.90;;;;;;5038824;28;20132;-61
2021/11/07 05:38:40;;;;;;;14.40;1.90;;;9.70;99.90;;;;;;5040823;28;20554;-61
2021/11/07 05:41:06;;;;;;;17.42;2.15;;;9.60;99.90;;;;;;5037189;28;20033;-62
2021/11/07 05:43:32;;;;;;;15.90;1.55;;;9.50;99.90;;;;;;5041752;28;20044;-61
2021/11/07 05:45:58;;;;;;;14.20;1.63;;;9.50;99.90;;;;;;5038001;28;20537;-63
2021/11/07 05:48:23;;;;;;;9.30;1.40;;;9.50;99.90;;;;;;5039552;28;20129;-64
2021/11/07 05:50:49;;;;;;;7.35;1.30;;;9.50;99.90;;;;;;5021292;28;20036;-61
2021/11/07 05:53:15;;;;;;;12.45;2.10;;;9.40;99.90;;;;;;5021536;28;20072;-61
2021/11/07 05:55:40;;;;;;;12.77;2.15;;;9.40;99.90;;;;;;5038667;28;20485;-61
2021/11/07 05:58:06;;;;;;;10.57;2.28;;;9.40;99.90;;;;;;5030705;28;20060;-62
2021/11/07 06:00:32;;;;;;;13.65;2.15;;;9.40;99.90;;;;;;5021269;28;20033;-63
2021/11/07 06:03:01;;;;;;;14.55;1.63;;;9.40;99.90;;;;;;5036433;28;20029;-63
2021/11/07 06:05:27;;;;;;;11.38;1.40;;;9.50;99.90;;;;;;5037299;28;20038;-61
2021/11/07 06:07:53;;;;;;;18.33;2.17;;;9.50;99.90;;;;;;5037056;28;20128;-60
2021/11/07 06:10:19;;;;;;;11.13;2.17;;;9.50;99.90;;;;;;5039103;28;20058;-61
2021/11/07 06:12:45;;;;;;;18.90;3.25;;;9.50;99.90;;;;;;5038876;28;20037;-62
2021/11/07 06:15:11;;;;;;;12.07;1.42;;;9.40;99.90;;;;;;5036479;28;20041;-61
2021/11/07 06:17:36;;;;;;;15.00;2.53;;;9.40;99.90;;;;;;5019773;28;20116;-64
2021/11/07 06:20:05;;;;;;;8.23;1.73;;;9.50;99.90;;;;;;5039427;28;20041;-63
2021/11/07 06:22:30;;;;;;;14.43;1.35;;;9.40;99.90;;;;;;5033703;28;20561;-64
2021/11/07 06:24:58;;;;;;;12.35;2.05;;;9.40;99.90;;;;;;5039918;28;20104;-61
2021/11/07 06:27:27;;;;;;;18.88;2.65;;;9.40;99.90;;;;;;5019803;28;20116;-62
2021/11/07 06:29:52;;;;;;;11.32;1.98;;;9.40;99.90;;;;;;5039096;28;20041;-64
2021/11/07 06:32:18;;;;;;;19.65;2.33;;;9.30;99.90;;;;;;5020251;28;20064;-61
2021/11/07 06:34:44;;;;;;;11.10;2.28;;;9.40;99.90;;;;;;5038854;28;20094;-60
2021/11/07 06:37:11;;;;;;;14.93;1.85;;;9.30;99.90;;;;;;5037236;28;20030;-61
2021/11/07 06:39:37;;;;;;;15.60;2.00;;;9.30;99.90;;;;;;5039839;28;20397;-62
2021/11/07 06:42:04;;;;;;;12.23;1.83;;;9.30;99.90;;;;;;5036247;28;20461;-64
2021/11/07 06:44:31;;;;;;;13.77;2.22;;;9.40;99.90;;;;;;5040388;28;20033;-60
2021/11/07 06:46:57;;;;;;;7.47;1.13;;;9.40;99.90;;;;;;5036242;28;20031;-65
2021/11/07 06:49:24;;;;;;;12.48;1.58;;;9.40;99.90;;;;;;5038393;28;20496;-61
2021/11/07 06:51:50;;;;;;;18.13;2.40;;;9.40;99.90;;;;;;5038885;28;20509;-62
2021/11/07 06:54:15;;;;;;;9.05;1.48;;;9.40;99.90;;;;;;5037589;28;20044;-60
2021/11/07 06:56:42;;;;;;;8.85;1.23;;;9.40;99.90;;;;;;5036842;28;20029;-62
2021/11/07 06:59:08;;;;;;;16.63;2.05;;;9.30;99.90;;;;;;5036385;28;20026;-62
2021/11/07 07:01:35;;;;;;;9.75;1.90;;;9.30;99.90;;;;;;5039703;28;20055;-61
2021/11/07 07:04:01;;;;;;;11.60;1.52;;;9.30;99.90;;;;;;5039745;28;20075;-61
2021/11/07 07:06:27;;;;;;;17.17;3.08;;;9.30;99.90;;;;;;5039934;28;20060;-63
2021/11/07 07:08:56;;;;;;;16.58;2.42;;;9.30;99.90;;;;;;5036390;28;20034;-63
2021/11/07 07:11:46;;;;;;;13.40;2.35;;;9.30;99.90;;;;;;5039114;28;20500;-63
2021/11/07 07:14:21;;;;;;;19.75;1.42;;;9.20;99.90;;;;;;5032022;28;20037;-64
2021/11/07 07:22:16;;;;;;;9.15;1.90;;;9.30;99.90;;;;;;5038225;28;20055;-63
2021/11/07 07:35:46;;;;;;;10.75;2.92;;;9.70;99.90;;;;;;5039789;28;20121;-64
2021/11/07 07:38:13;;;;;;;12.88;1.50;;;9.70;99.90;;;;;;5037188;28;20468;-64
2021/11/07 07:40:38;;;;;;;11.15;1.80;;;9.80;99.90;;;;;;5037818;28;20121;-63
2021/11/07 07:43:04;;;;;;;11.10;1.50;;;9.90;99.90;;;;;;5037805;28;20115;-62
2021/11/07 07:45:30;;;;;;;10.05;1.73;;;9.80;99.90;;;;;;5036225;28;20478;-65
2021/11/07 07:47:56;;;;;;;11.38;1.45;;;9.90;99.90;;;;;;5039074;28;20051;-64
2021/11/07 07:50:23;;;;;;;16.30;2.65;;;9.90;99.90;;;;;;5034659;28;20512;-64
2021/11/07 07:52:50;;;;;;;12.35;1.48;;;9.90;99.90;;;;;;5036396;28;20505;-63
2021/11/07 07:55:16;;;;;;;19.48;2.78;;;10.00;99.90;;;;;;5039677;28;20040;-64
2021/11/07 07:57:45;;;;;;;10.43;2.03;;;10.00;99.90;;;;;;5037981;28;20048;-63
2021/11/07 08:00:12;;;;;;;10.65;1.52;;;10.10;99.90;;;;;;5036681;28;20051;-63
2021/11/07 08:02:38;;;;;;;11.05;1.90;;;10.20;99.90;;;;;;5037423;28;20068;-64
2021/11/07 08:05:05;;;;;;;9.27;2.17;;;10.30;99.90;;;;;;5038192;28;20045;-63
2021/11/07 08:07:30;;;;;;;11.35;1.95;;;10.50;99.90;;;;;;5039059;28;20033;-63
2021/11/07 08:09:56;;;;;;;12.07;1.52;;;10.70;99.90;;;;;;5035153;28;20040;-64
2021/11/07 08:12:23;;;;;;;18.08;2.33;;;10.70;99.90;;;;;;5038877;28;20037;-64
2021/11/07 08:14:49;;;;;;;15.98;3.25;;;10.80;99.90;;;;;;5017888;28;20041;-62
2021/11/07 08:17:15;;;;;;;8.50;1.60;;;10.80;99.90;;;;;;5038075;28;20553;-63
2021/11/07 08:19:41;;;;;;;17.63;1.83;;;10.70;99.90;;;;;;5037127;28;20111;-63
2021/11/07 08:22:08;;;;;;;10.60;1.35;;;10.60;99.90;;;;;;5020045;28;20371;-63
2021/11/07 08:24:35;;;;;;;8.48;1.67;;;10.50;99.90;;;;;;5032869;28;20091;-64
2021/11/07 08:27:02;;;;;;;14.02;2.38;;;10.50;99.90;;;;;;5030625;28;20044;-63
2021/11/07 08:29:28;;;;;;;11.00;1.90;;;10.60;99.90;;;;;;5030028;28;20057;-62
2021/11/07 08:31:54;;;;;;;11.68;1.25;;;10.70;99.90;;;;;;5033698;28;20501;-63
2021/11/07 08:34:23;;;;;;;22.38;3.15;;;10.70;99.90;;;;;;5039750;28;20489;-64
2021/11/07 08:37:00;;;;;;;17.55;2.05;;;10.70;99.90;;;;;;5037328;28;20024;-63
2021/11/07 08:42:16;;;;;;;20.70;2.75;;;10.80;99.90;;;;;;5034195;28;20067;-63
2021/11/07 09:02:06;;;;;;;13.52;1.35;;;11.40;99.90;;;;;;5034983;28;20436;-62
2021/11/07 09:04:21;;;;;;;10.27;1.73;;;11.40;99.90;;;;;;5020863;28;20063;-63
2021/11/07 09:09:17;;;;;;;8.02;1.33;;;11.70;99.90;;;;;;5040630;28;20043;-63
2021/11/07 09:11:55;;;;;;;16.60;1.85;;;11.80;99.90;;;;;;5038542;28;20112;-63
2021/11/07 09:14:30;;;;;;;10.50;2.22;;;12.10;99.90;;;;;;5017765;28;20041;-63
2021/11/07 09:16:57;;;;;;;17.42;1.70;;;12.20;99.90;;;;;;5023644;28;20475;-62
2021/11/07 09:19:25;;;;;;;10.02;1.63;;;12.20;99.90;;;;;;5025839;28;20061;-63
2021/11/07 09:21:57;;;;;;;7.80;1.40;;;12.30;99.90;;;;;;5022750;28;20033;-63
2021/11/07 09:24:31;;;;;;;7.57;1.10;;;12.40;99.90;;;;;;5024957;28;20112;-63
2021/11/07 09:26:57;;;;;;;7.88;1.42;;;12.40;99.90;;;;;;5025904;28;20116;-63
2021/11/07 09:29:44;;;;;;;15.90;2.65;;;12.40;99.90;;;;;;5025583;28;20029;-61
2021/11/07 09:33:07;;;;;;;8.52;1.52;;;12.20;99.90;;;;;;5026577;28;20033;-63
2021/11/07 09:37:39;;;;;;;9.80;2.47;;;12.30;99.90;;;;;;5024159;28;20033;-61
2021/11/07 09:40:09;;;;;;;12.50;1.83;;;12.20;99.90;;;;;;5023540;28;20052;-62
2021/11/07 09:42:53;;;;;;;13.38;1.25;;;12.20;99.90;;;;;;5025596;28;20556;-63
2021/11/07 09:45:31;;;;;;;13.98;1.50;;;12.20;99.90;;;;;;5023896;28;23374;-62
2021/11/07 09:48:03;;;;;;;13.90;2.15;;;12.30;99.90;;;;;;5024718;28;20057;-64
2021/11/07 09:50:29;;;;;;;10.15;1.70;;;12.20;99.90;;;;;;5024943;28;20037;-63
2021/11/07 09:52:55;;;;;;;12.13;1.73;;;12.20;99.90;;;;;;5035290;28;20393;-62
2021/11/07 09:55:25;;;;;;;11.00;1.70;;;12.30;99.90;;;;;;5038090;28;20033;-62
2021/11/07 09:57:53;;;;;;;15.73;2.08;;;12.40;99.90;;;;;;5030687;28;20036;-63
2021/11/07 10:00:28;;;;;;;7.40;1.05;;;12.40;99.90;;;;;;5031121;28;20090;-63
2021/11/07 10:02:55;;;;;;;8.57;1.92;;;12.40;99.90;;;;;;5033178;28;20141;-63
2021/11/07 10:05:21;;;;;;;21.77;2.97;;;12.30;99.90;;;;;;5036240;28;20037;-64
2021/11/07 10:08:05;;;;;;;11.63;1.80;;;12.30;99.90;;;;;;5039360;28;20025;-65
2021/11/07 10:10:34;;;;;;;13.20;1.40;;;12.40;99.90;;;;;;5033890;28;20490;-62
2021/11/07 10:13:20;;;;;;;16.98;2.47;;;12.40;99.90;;;;;;5035446;28;20069;-68
2021/11/07 10:15:50;;;;;;;12.85;2.78;;;12.40;99.90;;;;;;5032578;28;20140;-71
2021/11/07 10:18:59;;;;;;;13.35;2.33;;;12.40;99.90;;;;;;5031254;28;20371;-62
2021/11/07 10:21:23;;;;;;;11.75;1.40;;;12.50;99.90;;;;;;5031046;28;20034;-62
2021/11/07 10:24:17;;;;;;;14.55;2.15;;;12.50;99.90;;;;;;5032473;28;20734;-63
2021/11/07 10:26:50;;;;;;;12.88;2.35;;;12.70;99.90;;;;;;5039331;28;20036;-64
2021/11/07 10:29:27;;;;;;;9.93;1.65;;;12.70;99.90;;;;;;5031747;28;20025;-63
2021/11/07 10:32:15;;;;;;;12.88;1.77;;;12.60;99.90;;;;;;5034024;28;20124;-63
2021/11/07 10:53:45;;;;;;;10.80;1.40;;;12.30;99.90;;;;;;5029731;28;20033;-62
2021/11/07 10:56:13;;;;;;;12.43;1.63;;;12.50;99.90;;;;;;5036959;28;20098;-63
2021/11/07 10:58:41;;;;;;;8.88;1.63;;;12.60;99.90;;;;;;5017928;28;20406;-64
2021/11/07 11:01:19;;;;;;;11.15;1.27;;;12.70;99.90;;;;;;5037710;28;20158;-64
2021/11/07 11:03:59;;;;;;;9.85;2.40;;;12.90;99.90;;;;;;5033042;28;20034;-64
2021/11/07 11:06:25;;;;;;;16.40;3.03;;;13.00;99.90;;;;;;5033670;28;20029;-63
2021/11/07 11:09:10;;;;;;;11.77;1.40;;;12.90;99.90;;;;;;5035916;28;20026;-63
2021/11/07 11:11:46;;;;;;;8.25;1.52;;;12.90;99.90;;;;;;5037055;28;20033;-63
2021/11/07 11:17:04;;;;;;;22.10;2.13;;;12.30;99.90;;;;;;5032677;28;20504;-62
2021/11/07 11:27:24;;;;;;;7.72;1.30;;;11.30;99.90;;;;;;5027944;28;20108;-61
2021/11/07 11:29:59;;;;;;;13.23;1.65;;;11.20;99.90;;;;;;5020994;28;20422;-63
2021/11/07 11:32:47;;;;;;;17.15;2.47;;;11.10;99.90;;;;;;5024105;28;20033;-63
2021/11/07 11:38:33;;;;;;;12.18;1.70;;;11.10;99.90;;;;;;5024852;28;20090;-62
2021/11/07 11:40:59;;;;;;;19.63;3.25;;;11.20;99.90;;;;;;5024521;28;20111;-62
2021/11/07 11:43:39;;;;;;;11.85;1.63;;;11.30;99.90;;;;;;5017536;28;20571;-62
2021/11/07 11:46:16;;;;;;;9.20;1.85;;;11.20;99.90;;;;;;5029745;28;20034;-62
2021/11/07 11:49:17;;;;;;;7.32;2.00;;;11.20;99.90;;;;;;5022902;28;20033;-62
2021/11/07 11:51:50;;;;;;;;;;;11.20;99.90;;;;;;5007072;28;20042;-63
2021/11/07 11:57:49;;;;;;;17.38;2.55;;;11.40;99.90;;;;;;5034622;28;20102;-62
2021/11/07 12:03:28;;;;;;;18.25;2.80;;;11.50;99.90;;;;;;5040269;28;20052;-62
2021/11/07 12:05:58;;;;;;;14.15;1.52;;;11.40;99.90;;;;;;5031741;28;20032;-62
2021/11/07 12:13:54;;;;;;;15.02;2.03;;;10.90;99.90;;;;;;5036868;28;20398;-62
2021/11/07 12:16:48;;;;;;;15.35;2.47;;;10.90;99.90;;;;;;5041695;28;20032;-62
2021/11/07 12:19:16;;;;;;;21.27;3.05;;;10.70;99.90;;;;;;5036146;28;20048;-62
2021/11/07 12:21:49;;;;;;;14.52;1.75;;;10.60;99.90;;;;;;5043581;28;20041;-62
2021/11/07 12:24:46;;;;;;;11.25;1.92;;;10.50;99.90;;;;;;5036035;28;20038;-62
2021/11/07 12:27:22;;;;;;;20.60;3.03;;;10.60;99.90;;;;;;5017634;28;20038;-62
2021/11/07 12:29:58;;;;;;;11.75;2.42;;;10.60;99.90;;;;;;5037097;28;20029;-62
2021/11/07 12:32:30;;;;;;;21.08;2.90;;;10.60;99.90;;;;;;5040747;28;20524;-62
2021/11/07 12:35:08;;;;;;;17.63;2.30;;;10.70;99.90;;;;;;5040493;28;20045;-63
2021/11/07 12:41:16;;;;;;;18.60;2.25;;;10.70;99.90;;;;;;5041767;28;20028;-62
2021/11/07 12:43:53;;;;;;;12.07;3.03;;;10.70;99.90;;;;;;5018206;28;20095;-62
2021/11/07 12:49:14;;;;;;;15.15;2.50;;;10.70;99.90;;;;;;5034932;28;20534;-62
2021/11/07 12:51:42;;;;;;;15.63;2.38;;;10.60;99.90;;;;;;5035627;28;20044;-62
2021/11/07 12:54:23;;;;;;;20.38;3.80;;;10.70;99.90;;;;;;5034470;28;20409;-62
2021/11/07 12:57:04;;;;;;;18.95;2.78;;;10.60;99.90;;;;;;5037815;28;20393;-62
2021/11/07 12:59:43;;;;;;;12.50;2.20;;;10.70;99.90;;;;;;5039133;28;20385;-62
2021/11/07 13:02:18;;;;;;;21.60;3.53;;;10.70;99.90;;;;;;5016237;28;20083;-62
2021/11/07 13:05:01;;;;;;;22.42;3.47;;;10.70;99.90;;;;;;5035972;28;20029;-62
2021/11/07 13:08:03;;;;;;;16.05;2.83;;;10.70;99.90;;;;;;5018934;28;20117;-62
2021/11/07 13:10:44;;;;;;;17.65;3.13;;;10.80;99.90;;;;;;5035877;28;20083;-61
2021/11/07 13:13:21;;;;;;;13.75;2.28;;;10.70;99.90;;;;;;5033116;28;20037;-62
2021/11/07 13:29:40;;;;;;;20.37;2.90;;;10.80;99.90;;;;;;5025201;28;20037;-62
2021/11/07 13:32:28;;;;;;;12.63;2.10;;;10.80;99.90;;;;;;5025527;28;20335;-63
2021/11/07 13:35:15;;;;;;;26.13;3.45;;;10.80;99.90;;;;;;5013472;28;20051;-62
2021/11/07 13:38:15;;;;;;;20.55;2.85;;;10.90;99.90;;;;;;5010710;28;20030;-62
2021/11/07 13:40:41;;;;;;;17.83;2.80;;;11.00;99.90;;;;;;5027048;28;20057;-62
2021/11/07 13:43:14;;;;;;;15.00;1.98;;;11.00;99.90;;;;;;5025446;28;20112;-63
2021/11/07 13:45:43;;;;;;;19.20;2.45;;;11.00;99.90;;;;;;5027397;28;20091;-62
2021/11/07 13:48:13;;;;;;;18.90;2.65;;;11.00;99.90;;;;;;5024820;28;20551;-62
2021/11/07 13:50:39;;;;;;;13.63;3.05;;;11.00;99.90;;;;;;5012726;28;20105;-62
2021/11/07 13:53:05;;;;;;;20.38;2.80;;;11.00;99.90;;;;;;5027018;28;20128;-63
2021/11/07 13:55:34;;;;;;;39.75;3.50;;;11.00;99.90;;;;;;5031398;28;20141;-62
2021/11/07 13:58:15;;;;;;;16.52;2.58;;;10.90;99.90;;;;;;5028925;28;20049;-62
2021/11/07 14:00:41;;;;;;;9.38;1.70;;;10.90;99.90;;;;;;5013074;28;20041;-62
2021/11/07 14:03:18;;;;;;;25.08;3.65;;;10.90;99.90;;;;;;5012022;28;20045;-62
2021/11/07 14:05:52;;;;;;;15.32;2.58;;;10.90;99.90;;;;;;5031907;28;20523;-62
2021/11/07 14:08:17;;;;;;;15.35;2.72;;;11.00;99.90;;;;;;5030485;28;20032;-62
2021/11/07 14:10:43;;;;;;;15.70;2.63;;;11.10;99.90;;;;;;5032572;28;20033;-62
2021/11/07 14:13:12;;;;;;;13.65;2.15;;;11.20;99.90;;;;;;5030868;28;20040;-63
2021/11/07 14:15:43;;;;;;;13.73;2.45;;;11.30;99.90;;;;;;5030291;28;20036;-62
2021/11/07 14:18:11;;;;;;;17.92;2.05;;;11.30;99.90;;;;;;5030324;28;20131;-62
2021/11/07 14:20:41;;;;;;;12.30;1.95;;;11.50;99.90;;;;;;5031235;28;20040;-63
2021/11/07 14:26:10;;;;;;;8.25;1.20;;;11.40;99.90;;;;;;5027827;28;20046;-64
2021/11/07 14:28:58;;;;;;;10.27;1.85;;;11.20;99.90;;;;;;5028533;28;20036;-62
2021/11/07 14:31:31;;;;;;;15.00;2.33;;;11.20;99.90;;;;;;5030659;28;20068;-63
2021/11/07 14:34:21;;;;;;;8.02;1.70;;;11.10;99.90;;;;;;5009935;28;20071;-65
2021/11/07 14:39:41;;;;;;;14.32;1.30;;;11.00;99.90;;;;;;5029634;28;20528;-62
2021/11/07 14:47:52;;;;;;;11.52;1.48;;;11.00;99.90;;;;;;5025757;28;20033;-62
2021/11/07 14:50:31;;;;;;;11.60;2.72;;;11.00;99.90;;;;;;5025401;28;20441;-62
2021/11/07 14:53:45;;;;;;;11.68;2.00;;;11.10;99.90;;;;;;5014977;28;20033;-62
2021/11/07 14:56:07;;;;;;;20.65;3.10;;;11.10;99.90;;;;;;5019942;28;20033;-62
2021/11/07 14:58:50;;;;;;;10.00;1.98;;;11.00;99.90;;;;;;5009935;28;20486;-63
2021/11/07 15:01:26;;;;;;;18.92;1.48;;;11.10;99.90;;;;;;5034034;28;20028;-62
2021/11/07 15:06:42;;;;;;;15.93;2.20;;;10.80;99.90;;;;;;5034642;28;20499;-62
2021/11/07 15:09:34;;;;;;;14.52;2.65;;;10.70;99.90;;;;;;5029928;28;20059;-63
2021/11/07 15:18:09;;;;;;;11.20;2.63;;;10.40;99.90;;;;;;5032763;28;20029;-63
2021/11/07 15:20:19;;;;;;;18.60;2.17;;;10.40;99.90;;;;;;5023543;28;20048;-61
2021/11/07 15:22:48;;;;;;;18.50;2.60;;;10.40;99.90;;;;;;5020251;28;20026;-62
2021/11/07 15:25:15;;;;;;;23.20;3.83;;;10.40;99.90;;;;;;5037425;28;20064;-62
2021/11/07 15:27:41;;;;;;;24.10;2.72;;;10.50;99.90;;;;;;5037520;28;20030;-63
2021/11/07 15:30:17;;;;;;;22.95;3.60;;;10.60;99.90;;;;;;5019413;28;20045;-62